Time;durP1;ratioP1;P1;durP2;ratioP2;P2;SDS_P1;SDS_P2;PMS_P1;PMS_P2;Temp;Humidity;BMP_temperature;BMP_pressure;BME280_temperature;BME280_humidity;BME280_pressure;Samples;Min_cycle;Max_cycle;Signal;HPM_P1;HPM_P2
2023/05/13 00:00:10;;;;;;;11.35;6.63;;;;;;;12.10;95.51;101938.34;1052502;28;20479;-78
2023/05/13 00:00:42;;;;;;;7.80;6.30;;;;;;;12.13;95.16;101944.13;1056225;28;20352;-78
2023/05/13 00:01:14;;;;;;;6.57;5.95;;;;;;;12.12;94.75;101939.81;1052537;28;20290;-78
2023/05/13 00:01:47;;;;;;;6.00;5.57;;;;;;;12.07;94.73;101935.06;1052124;28;20294;-78
2023/05/13 00:02:20;;;;;;;7.25;6.47;;;;;;;12.07;95.41;101943.06;1052209;28;20306;-78
2023/05/13 00:02:52;;;;;;;7.07;5.85;;;;;;;11.94;95.54;101940.34;1052386;28;20298;-78
2023/05/13 00:03:23;;;;;;;6.90;6.30;;;;;;;12.03;96.10;101943.66;1052498;28;20375;-78
2023/05/13 00:03:55;;;;;;;7.20;6.43;;;;;;;11.99;95.71;101937.88;1052354;28;20290;-78
2023/05/13 00:04:27;;;;;;;6.60;5.90;;;;;;;12.13;95.41;101948.63;1051989;28;20388;-78
2023/05/13 00:04:59;;;;;;;7.22;6.55;;;;;;;11.97;96.04;101931.91;1052704;28;20285;-78
2023/05/13 00:05:30;;;;;;;6.60;6.00;;;;;;;12.01;95.56;101941.19;1052136;28;20434;-78
2023/05/13 00:06:02;;;;;;;7.60;6.00;;;;;;;12.13;95.31;101940.63;1052104;28;20305;-77
2023/05/13 00:06:34;;;;;;;8.38;5.90;;;;;;;12.11;94.29;101940.00;1052155;28;20294;-78
2023/05/13 00:07:06;;;;;;;8.02;6.75;;;;;;;12.11;94.31;101934.66;1048351;28;20290;-78
2023/05/13 00:07:38;;;;;;;7.32;6.43;;;;;;;12.07;94.91;101940.41;1047764;28;20310;-78
2023/05/13 00:08:10;;;;;;;6.95;6.25;;;;;;;11.98;95.78;101935.41;1048713;28;20341;-78
2023/05/13 00:08:42;;;;;;;7.18;6.50;;;;;;;11.98;96.43;101935.41;1052533;28;20304;-78
2023/05/13 00:09:13;;;;;;;7.13;6.43;;;;;;;12.12;94.97;101941.66;1050246;28;20310;-78
2023/05/13 00:09:45;;;;;;;9.93;6.25;;;;;;;12.03;94.39;101939.13;1052497;28;20290;-78
2023/05/13 00:10:19;;;;;;;6.50;5.93;;;;;;;11.81;94.74;101942.13;1052228;28;20298;-78
2023/05/13 00:10:51;;;;;;;6.90;6.22;;;;;;;11.80;96.37;101941.31;1052329;28;20312;-85
2023/05/13 00:11:22;;;;;;;7.75;6.95;;;;;;;11.89;95.52;101942.78;1052267;28;20392;-85
2023/05/13 00:11:54;;;;;;;6.95;6.30;;;;;;;11.94;94.75;101940.34;1052073;28;20305;-84
2023/05/13 00:12:25;;;;;;;6.63;6.10;;;;;;;11.85;95.13;101944.19;1052394;28;20699;-85
2023/05/13 00:12:57;;;;;;;8.90;6.40;;;;;;;11.83;96.18;101946.25;1052135;28;20344;-85
2023/05/13 00:13:29;;;;;;;8.68;6.43;;;;;;;11.73;95.82;101937.72;1052046;28;20381;-85
2023/05/13 00:14:00;;;;;;;7.93;7.13;;;;;;;11.81;96.41;101950.97;1052318;28;20298;-85
2023/05/13 00:14:32;;;;;;;7.13;6.43;;;;;;;11.75;96.80;101943.69;1052469;28;20290;-85
2023/05/13 00:15:04;;;;;;;7.28;6.68;;;;;;;11.80;96.67;101943.97;1052254;28;20298;-85
2023/05/13 00:15:35;;;;;;;7.50;6.80;;;;;;;11.73;96.79;101945.72;1052281;28;20629;-85
2023/05/13 00:16:07;;;;;;;7.72;5.43;;;;;;;11.58;96.67;101940.50;1051589;28;20297;-86
2023/05/13 00:16:39;;;;;;;7.13;6.45;;;;;;;11.63;96.95;101938.09;1048658;28;20295;-86
2023/05/13 00:17:11;;;;;;;8.75;7.35;;;;;;;11.62;97.58;101940.94;1052280;28;20040;-86
2023/05/13 00:17:42;;;;;;;8.40;6.78;;;;;;;11.59;97.62;101938.66;1048533;28;20310;-86
2023/05/13 00:18:14;;;;;;;8.05;6.28;;;;;;;11.68;97.09;101945.50;1052443;28;20510;-85
2023/05/13 00:18:46;;;;;;;7.90;7.18;;;;;;;11.70;97.04;101943.44;1045771;28;20310;-85
2023/05/13 00:19:18;;;;;;;10.65;6.80;;;;;;;11.71;97.38;101939.75;1048217;28;20303;-85
2023/05/13 00:19:49;;;;;;;7.63;6.88;;;;;;;11.64;96.86;101939.72;1052005;28;20294;-85
2023/05/13 00:20:21;;;;;;;7.30;6.70;;;;;;;11.62;97.67;101944.44;1052457;28;20759;-86
2023/05/13 00:20:53;;;;;;;8.10;7.30;;;;;;;11.75;98.14;101946.34;1048384;28;20803;-85
2023/05/13 00:21:25;;;;;;;8.10;6.50;;;;;;;11.66;97.96;101947.53;1047781;28;20302;-86
2023/05/13 00:21:56;;;;;;;7.20;6.60;;;;;;;11.72;98.47;101944.91;1048371;28;20287;-85
2023/05/13 00:22:28;;;;;;;10.93;6.97;;;;;;;11.64;98.70;101938.91;1048086;28;20839;-85
2023/05/13 00:22:59;;;;;;;8.32;7.38;;;;;;;11.68;98.04;101940.97;1051663;28;20407;-85
2023/05/13 00:23:31;;;;;;;7.47;6.78;;;;;;;11.73;98.10;101949.22;1048577;28;20290;-84
2023/05/13 00:24:04;;;;;;;7.18;6.50;;;;;;;11.75;98.44;101941.84;1052089;28;20297;-85
2023/05/13 00:24:35;;;;;;;7.25;6.55;;;;;;;11.73;98.80;101943.06;1052253;28;20663;-86
2023/05/13 00:25:07;;;;;;;13.25;8.85;;;;;;;11.75;98.72;101946.34;1052224;28;20377;-85
2023/05/13 00:25:40;;;;;;;7.75;7.05;;;;;;;11.59;99.07;101944.00;1047930;28;20325;-85
2023/05/13 00:26:12;;;;;;;8.68;7.25;;;;;;;11.61;98.84;101940.13;1044215;28;20291;-85
2023/05/13 00:26:44;;;;;;;8.20;6.78;;;;;;;11.59;99.22;101947.50;1043519;28;20331;-86
2023/05/13 00:27:16;;;;;;;7.60;6.63;;;;;;;11.58;98.79;101942.38;1044338;28;20821;-85
2023/05/13 00:27:47;;;;;;;7.22;6.63;;;;;;;11.61;98.45;101945.47;1049100;28;20816;-85
2023/05/13 00:28:20;;;;;;;8.70;7.90;;;;;;;11.61;98.67;101941.97;1043969;28;20305;-85
2023/05/13 00:28:51;;;;;;;7.15;6.45;;;;;;;11.60;98.48;101948.31;1043935;28;20295;-86
2023/05/13 00:29:23;;;;;;;8.27;6.80;;;;;;;11.61;98.22;101944.63;1047936;28;20298;-85
2023/05/13 00:29:55;;;;;;;7.85;7.10;;;;;;;11.59;98.53;101944.00;1048540;28;20340;-85
2023/05/13 00:30:26;;;;;;;7.35;6.65;;;;;;;11.59;99.30;101946.69;1047916;28;20824;-85
2023/05/13 00:30:58;;;;;;;8.43;7.30;;;;;;;11.55;98.81;101945.44;1043512;28;20368;-85
2023/05/13 00:31:30;;;;;;;8.13;7.32;;;;;;;11.59;99.22;101941.34;1044603;28;20295;-85
2023/05/13 00:32:02;;;;;;;7.97;7.10;;;;;;;11.57;99.23;101944.22;1047976;28;20310;-85
2023/05/13 00:32:33;;;;;;;9.60;7.70;;;;;;;11.58;99.01;101937.03;1052112;28;20367;-85
2023/05/13 00:33:06;;;;;;;9.40;7.28;;;;;;;11.59;99.34;101934.16;1043686;28;20299;-85
2023/05/13 00:33:38;;;;;;;7.45;6.75;;;;;;;11.46;99.13;101936.72;1040777;28;20678;-85
2023/05/13 00:34:09;;;;;;;10.48;7.25;;;;;;;11.40;99.38;101940.19;1039531;28;20777;-84
2023/05/13 00:34:41;;;;;;;7.82;7.03;;;;;;;11.40;99.54;101938.34;1036719;28;20304;-85
2023/05/13 00:35:13;;;;;;;9.23;7.18;;;;;;;11.49;99.85;101936.34;1044539;28;20669;-86
2023/05/13 00:35:44;;;;;;;8.77;6.63;;;;;;;11.38;100.00;101945.72;1044514;28;20294;-85
2023/05/13 00:36:16;;;;;;;11.90;8.02;;;;;;;11.46;100.00;101940.22;1047942;28;20299;-85
2023/05/13 00:36:47;;;;;;;8.02;7.22;;;;;;;11.43;100.00;101937.94;1048445;28;20306;-85
2023/05/13 00:37:19;;;;;;;8.30;6.85;;;;;;;11.48;100.00;101936.53;1052392;28;20356;-84
2023/05/13 00:37:51;;;;;;;7.35;6.65;;;;;;;11.40;100.00;101943.66;1052607;28;20420;-86
2023/05/13 00:38:22;;;;;;;7.60;6.90;;;;;;;11.45;100.00;101945.75;1051941;28;20323;-85
2023/05/13 00:38:54;;;;;;;9.75;7.85;;;;;;;11.41;100.00;101939.97;1052227;28;20290;-85
2023/05/13 00:39:27;;;;;;;7.90;7.07;;;;;;;11.43;100.00;101943.28;1048111;28;20823;-85
2023/05/13 00:39:59;;;;;;;7.95;7.25;;;;;;;11.36;100.00;101937.09;1043615;28;20352;-85
2023/05/13 00:40:33;;;;;;;13.18;7.13;;;;;;;11.33;100.00;101937.47;1043038;28;20311;-85
2023/05/13 00:41:04;;;;;;;7.55;6.78;;;;;;;11.30;100.00;101939.72;1049049;28;20297;-85
2023/05/13 00:41:36;;;;;;;7.13;6.53;;;;;;;11.40;100.00;101938.34;1045685;28;20826;-85
2023/05/13 00:42:11;;;;;;;9.60;7.00;;;;;;;11.36;100.00;101937.09;1051355;28;20333;-85
2023/05/13 00:42:42;;;;;;;13.25;6.90;;;;;;;11.41;100.00;101939.97;1046995;28;20298;-86
2023/05/13 00:43:14;;;;;;;8.98;7.10;;;;;;;11.31;100.00;101934.19;1044875;28;20303;-85
2023/05/13 00:43:45;;;;;;;6.60;6.05;;;;;;;11.26;100.00;101935.78;1046784;28;20362;-85
2023/05/13 00:44:17;;;;;;;6.47;5.97;;;;;;;11.25;100.00;101934.13;1051987;28;20660;-85
2023/05/13 00:44:50;;;;;;;7.07;6.47;;;;;;;11.24;100.00;101933.31;1047701;28;20299;-84
2023/05/13 00:45:22;;;;;;;8.85;6.82;;;;;;;11.30;100.00;101937.88;1044135;28;20295;-86
2023/05/13 00:45:53;;;;;;;8.82;6.65;;;;;;;11.26;100.00;101936.59;1043562;28;20303;-85
2023/05/13 00:46:31;;;;;;;8.55;7.20;;;;;;;11.27;100.00;101932.91;1044818;28;20785;-85
2023/05/13 00:47:04;;;;;;;11.70;7.28;;;;;;;11.28;100.00;101939.06;1049358;28;20295;-85
2023/05/13 00:47:38;;;;;;;8.05;7.25;;;;;;;11.27;100.00;101932.09;1047903;28;20840;-85
2023/05/13 00:48:09;;;;;;;8.05;6.75;;;;;;;11.26;100.00;101939.28;1039287;28;20841;-85
2023/05/13 00:48:41;;;;;;;8.05;6.25;;;;;;;11.19;100.00;101943.72;1040753;28;20315;-85
2023/05/13 00:49:12;;;;;;;7.93;7.22;;;;;;;11.11;100.00;101934.00;1040083;28;20316;-85
2023/05/13 00:49:44;;;;;;;8.77;6.65;;;;;;;11.25;100.00;101937.63;1044351;28;20677;-85
2023/05/13 00:50:16;;;;;;;9.00;7.10;;;;;;;11.03;100.00;101941.34;1044448;28;20310;-85
2023/05/13 00:50:48;;;;;;;8.23;7.05;;;;;;;10.97;100.00;101934.09;1044145;28;20387;-85
2023/05/13 00:51:20;;;;;;;7.70;7.07;;;;;;;11.06;100.00;101946.28;1043451;28;20299;-86
2023/05/13 00:51:53;;;;;;;7.13;6.53;;;;;;;11.12;100.00;101935.66;1036326;28;20798;-85
2023/05/13 00:52:26;;;;;;;8.35;7.07;;;;;;;11.10;100.00;101931.53;1036568;28;20308;-83
2023/05/13 00:52:58;;;;;;;7.82;7.15;;;;;;;11.05;100.00;101939.28;1039710;28;20897;-86
2023/05/13 00:53:32;;;;;;;7.72;7.03;;;;;;;11.07;100.00;101942.59;1041613;28;20786;-85
2023/05/13 00:54:03;;;;;;;10.50;6.45;;;;;;;11.02;100.00;101935.19;1046006;28;20291;-85
2023/05/13 00:54:35;;;;;;;8.75;7.80;;;;;;;10.99;100.00;101934.75;1048258;28;20286;-85
2023/05/13 00:55:08;;;;;;;8.80;7.32;;;;;;;11.11;100.00;101927.84;1043633;28;20307;-85
2023/05/13 00:55:41;;;;;;;7.20;6.53;;;;;;;11.05;100.00;101936.63;1039262;28;20303;-85
2023/05/13 00:56:18;;;;;;;8.23;6.47;;;;;;;11.02;100.00;101937.03;1036550;28;20603;-85
2023/05/13 00:56:53;;;;;;;7.80;7.10;;;;;;;11.07;100.00;101939.94;1041122;28;20296;-85
2023/05/13 00:57:24;;;;;;;8.18;6.85;;;;;;;11.06;100.00;101930.28;1041631;28;20674;-85
2023/05/13 00:57:56;;;;;;;9.40;7.47;;;;;;;10.99;100.00;101929.41;1041503;28;20292;-85
2023/05/13 00:58:28;;;;;;;10.43;6.90;;;;;;;10.96;100.00;101940.47;1051261;28;20293;-84
2023/05/13 00:58:59;;;;;;;13.77;7.53;;;;;;;11.00;100.00;101936.38;1052141;28;20412;-85
2023/05/13 00:59:31;;;;;;;7.05;6.28;;;;;;;11.01;100.00;101936.19;1052854;28;20873;-85
2023/05/13 01:00:04;;;;;;;9.18;7.20;;;;;;;10.99;100.00;101940.91;1055712;28;20293;-85
2023/05/13 01:00:47;;;;;;;8.32;7.50;;;;;;;11.01;100.00;101940.72;1047644;28;20313;-85
2023/05/13 01:01:50;;;;;;;8.07;7.18;;;;;;;10.94;100.00;101942.47;1047761;28;20811;-85
2023/05/13 01:02:53;;;;;;;14.13;6.72;;;;;;;10.88;100.00;101932.56;1048922;28;20364;-85
2023/05/13 01:03:33;;;;;;;7.82;6.18;;;;;;;10.90;100.00;101941.19;1032145;28;20327;-85
2023/05/13 01:04:28;;;;;;;12.23;6.90;;;;;;;10.89;100.00;101939.56;1043542;28;20692;-85
2023/05/13 01:05:18;;;;;;;6.65;5.82;;;;;;;10.89;100.00;101935.03;1048251;28;20306;-85
2023/05/13 01:05:59;;;;;;;8.50;6.03;;;;;;;10.91;100.00;101927.69;1053924;28;20660;-85
2023/05/13 01:07:04;;;;;;;14.73;7.30;;;;;;;10.92;100.00;101931.16;1051904;28;20058;-86
2023/05/13 01:08:06;;;;;;;7.25;6.50;;;;;;;10.87;100.00;101930.94;1051941;28;20307;-85
2023/05/13 01:08:57;;;;;;;12.45;6.53;;;;;;;10.90;100.00;101930.53;1043642;28;20378;-85
2023/05/13 01:09:48;;;;;;;7.57;6.53;;;;;;;10.76;100.00;101933.09;1046431;28;20309;-85
2023/05/13 01:10:29;;;;;;;7.90;7.10;;;;;;;10.86;100.00;101934.59;1049490;28;20537;-85
2023/05/13 01:11:05;;;;;;;5.82;5.35;;;;;;;10.63;100.00;101935.63;1050447;28;20033;-85
2023/05/13 01:11:40;;;;;;;7.55;6.85;;;;;;;10.59;100.00;101929.03;1052280;28;20036;-86
2023/05/13 01:12:17;;;;;;;9.32;6.45;;;;;;;10.68;100.00;101938.56;1050304;28;20294;-85
2023/05/13 01:12:52;;;;;;;9.38;6.25;;;;;;;10.79;100.00;101940.72;1050487;28;20301;-85
2023/05/13 01:13:27;;;;;;;8.60;6.50;;;;;;;10.83;100.00;101935.81;1050214;28;20365;-85
2023/05/13 01:14:07;;;;;;;6.72;6.13;;;;;;;10.71;100.00;101932.84;1052188;28;20293;-85
2023/05/13 01:14:50;;;;;;;7.53;6.78;;;;;;;10.66;100.00;101929.91;1052474;28;20297;-85
2023/05/13 01:15:26;;;;;;;7.07;6.18;;;;;;;10.57;100.00;101930.22;1050708;28;20306;-85
2023/05/13 01:15:57;;;;;;;9.13;7.07;;;;;;;10.58;100.00;101931.88;1047918;28;20302;-85
2023/05/13 01:16:35;;;;;;;7.47;6.78;;;;;;;10.62;100.00;101927.81;1043625;28;20308;-86
2023/05/13 01:17:53;;;;;;;7.30;6.60;;;;;;;10.72;100.00;101933.66;1041754;28;20303;-85
2023/05/13 01:18:30;;;;;;;6.28;5.68;;;;;;;10.50;100.00;101923.00;1047584;28;20295;-85
2023/05/13 01:19:09;;;;;;;8.60;6.20;;;;;;;10.56;100.00;101928.56;1050320;28;20679;-85
2023/05/13 01:19:43;;;;;;;11.43;6.43;;;;;;;10.44;100.00;101928.25;1047616;28;20299;-85
2023/05/13 01:20:17;;;;;;;13.57;6.68;;;;;;;10.54;100.00;101928.78;1039621;28;20375;-85
2023/05/13 01:20:49;;;;;;;9.10;7.28;;;;;;;10.62;100.00;101935.81;1037570;28;20319;-85
2023/05/13 01:21:27;;;;;;;7.38;6.68;;;;;;;10.64;100.00;101928.44;1040279;28;20774;-85
2023/05/13 01:21:59;;;;;;;9.93;7.40;;;;;;;10.53;100.00;101929.78;1042133;28;20405;-84
2023/05/13 01:22:31;;;;;;;10.00;6.60;;;;;;;10.40;100.00;101934.94;1044328;28;20311;-85
2023/05/13 01:23:03;;;;;;;7.82;6.18;;;;;;;10.39;100.00;101933.31;1047419;28;20816;-85
2023/05/13 01:23:35;;;;;;;8.68;7.57;;;;;;;10.43;100.00;101939.94;1043522;28;20307;-85
2023/05/13 01:24:08;;;;;;;8.32;7.40;;;;;;;10.45;100.00;101940.56;1042914;28;20813;-85
2023/05/13 01:24:39;;;;;;;11.45;7.22;;;;;;;10.44;100.00;101942.41;1042202;28;20373;-86
2023/05/13 01:25:11;;;;;;;7.28;6.68;;;;;;;10.49;100.00;101933.84;1039879;28;20319;-85
2023/05/13 01:25:44;;;;;;;8.90;6.68;;;;;;;10.50;100.00;101935.50;1046057;28;20813;-85
2023/05/13 01:26:16;;;;;;;10.85;6.82;;;;;;;10.46;100.00;101936.88;1043211;28;20296;-85
2023/05/13 01:26:48;;;;;;;7.68;6.97;;;;;;;10.42;100.00;101938.28;1042516;28;20303;-85
2023/05/13 01:27:20;;;;;;;8.80;7.82;;;;;;;10.38;100.00;101936.97;1039132;28;20322;-85
2023/05/13 01:27:52;;;;;;;10.63;7.05;;;;;;;10.41;100.00;101936.63;1036858;28;20293;-85
2023/05/13 01:28:24;;;;;;;8.30;7.38;;;;;;;10.43;100.00;101940.75;1035630;28;20312;-85
2023/05/13 01:28:57;;;;;;;8.02;6.85;;;;;;;10.46;100.00;101931.56;1037001;28;20305;-85
2023/05/13 01:29:30;;;;;;;8.00;6.55;;;;;;;10.49;100.00;101939.16;1043741;28;20425;-85
2023/05/13 01:30:02;;;;;;;8.13;6.70;;;;;;;10.49;100.00;101932.00;1040353;28;20299;-85
2023/05/13 01:30:36;;;;;;;8.75;7.05;;;;;;;10.56;100.00;101936.56;1036062;28;20315;-85
2023/05/13 01:31:09;;;;;;;7.22;6.45;;;;;;;10.52;100.00;101931.63;1034577;28;20315;-85
2023/05/13 01:31:41;;;;;;;7.57;6.25;;;;;;;10.54;100.00;101936.75;1031357;28;20671;-85
2023/05/13 01:32:14;;;;;;;7.68;6.82;;;;;;;10.50;100.00;101932.81;1047719;28;20340;-85
2023/05/13 01:32:46;;;;;;;8.02;7.30;;;;;;;10.47;100.00;101933.22;1043231;28;20295;-85
2023/05/13 01:33:20;;;;;;;8.90;7.22;;;;;;;10.50;100.00;101940.81;1039416;28;20379;-85
2023/05/13 01:33:52;;;;;;;7.07;6.47;;;;;;;10.52;100.00;101936.13;1043322;28;20777;-85
2023/05/13 01:34:24;;;;;;;7.43;6.72;;;;;;;10.50;100.00;101933.66;1039584;28;20347;-85
2023/05/13 01:34:58;;;;;;;7.57;6.80;;;;;;;10.38;100.00;101936.97;1041240;28;20308;-84
2023/05/13 01:35:30;;;;;;;7.13;6.20;;;;;;;10.47;100.00;101931.38;1047556;28;20298;-85
2023/05/13 01:36:02;;;;;;;7.65;6.95;;;;;;;10.39;100.00;101943.94;1044430;28;20304;-85
2023/05/13 01:36:35;;;;;;;7.60;6.32;;;;;;;10.45;100.00;101935.25;1048517;28;20283;-85
2023/05/13 01:37:07;;;;;;;7.65;6.50;;;;;;;10.42;100.00;101940.94;1052013;28;20294;-85
2023/05/13 01:37:39;;;;;;;8.50;6.80;;;;;;;10.45;100.00;101938.72;1048602;28;20321;-85
2023/05/13 01:38:12;;;;;;;8.02;6.32;;;;;;;10.45;100.00;101937.91;1051916;28;20800;-85
2023/05/13 01:38:44;;;;;;;7.82;7.00;;;;;;;10.38;100.00;101942.31;1043666;28;20311;-85
2023/05/13 01:39:17;;;;;;;7.93;7.13;;;;;;;10.47;100.00;101941.19;1039464;28;20972;-85
2023/05/13 01:39:50;;;;;;;10.40;7.00;;;;;;;10.47;100.00;101941.19;1043316;28;20675;-85
2023/05/13 01:40:22;;;;;;;10.93;7.38;;;;;;;10.40;100.00;101940.28;1043154;28;20310;-85
2023/05/13 01:41:08;;;;;;;8.15;7.30;;;;;;;10.49;100.00;101941.84;1043765;28;20299;-85
2023/05/13 01:41:40;;;;;;;8.85;6.40;;;;;;;10.45;100.00;101944.06;1039134;28;20301;-85
2023/05/13 01:42:12;;;;;;;10.98;8.73;;;;;;;10.35;100.00;101940.84;1041801;28;20409;-85
2023/05/13 01:42:43;;;;;;;9.30;7.35;;;;;;;10.54;100.00;101934.09;1040063;28;20310;-85
2023/05/13 01:43:15;;;;;;;6.80;6.20;;;;;;;10.47;100.00;101933.22;1038341;28;20390;-85
2023/05/13 01:43:47;;;;;;;6.95;6.35;;;;;;;10.41;100.00;101933.97;1035329;28;20674;-85
2023/05/13 01:44:19;;;;;;;8.07;7.30;;;;;;;10.31;100.00;101938.75;1039679;28;20724;-85
2023/05/13 01:44:50;;;;;;;10.32;6.97;;;;;;;10.18;100.00;101942.06;1045353;28;20303;-85
2023/05/13 01:45:22;;;;;;;7.82;7.13;;;;;;;10.25;100.00;101936.84;1043883;28;20808;-85
2023/05/13 01:45:54;;;;;;;8.13;7.22;;;;;;;10.26;100.00;101935.81;1048211;28;20828;-85
2023/05/13 01:46:26;;;;;;;7.82;7.03;;;;;;;10.29;100.00;101935.44;1043056;28;20311;-85
2023/05/13 01:46:58;;;;;;;10.40;7.03;;;;;;;10.29;100.00;101938.94;1036735;28;20308;-85
2023/05/13 01:47:29;;;;;;;8.32;7.35;;;;;;;10.27;100.00;101943.63;1039390;28;20307;-85
2023/05/13 01:48:01;;;;;;;9.48;7.82;;;;;;;10.33;100.00;101942.88;1035885;28;20309;-85
2023/05/13 01:48:42;;;;;;;8.50;7.40;;;;;;;10.24;100.00;101943.19;1036682;28;20336;-85
2023/05/13 01:49:14;;;;;;;8.43;7.57;;;;;;;10.24;100.00;101940.53;1047718;28;20807;-85
2023/05/13 01:49:45;;;;;;;11.93;7.63;;;;;;;10.28;100.00;101941.78;1049728;28;20291;-85
2023/05/13 01:50:17;;;;;;;10.00;8.75;;;;;;;10.27;100.00;101940.13;1049231;28;20306;-85
2023/05/13 01:50:49;;;;;;;11.57;7.82;;;;;;;10.33;100.00;101939.38;1043259;28;21109;-85
2023/05/13 01:51:21;;;;;;;8.75;7.07;;;;;;;10.34;100.00;101939.19;1043917;28;20291;-85
2023/05/13 01:51:53;;;;;;;9.60;7.57;;;;;;;10.30;100.00;101945.91;1042993;28;20315;-85
2023/05/13 01:52:25;;;;;;;8.65;7.22;;;;;;;10.28;100.00;101937.28;1039440;28;20296;-85
2023/05/13 01:52:57;;;;;;;10.63;8.57;;;;;;;10.25;100.00;101936.84;1039219;28;20310;-85
2023/05/13 01:53:28;;;;;;;12.27;7.63;;;;;;;10.22;100.00;101940.72;1040102;28;20814;-85
2023/05/13 01:54:01;;;;;;;10.65;7.80;;;;;;;10.24;100.00;101937.84;1040266;28;20322;-85
2023/05/13 01:54:32;;;;;;;9.80;8.70;;;;;;;10.20;100.00;101940.91;1048229;28;21142;-85
2023/05/13 01:55:09;;;;;;;8.77;7.88;;;;;;;10.17;100.00;101941.25;1047577;28;20694;-85
2023/05/13 01:55:41;;;;;;;9.35;7.97;;;;;;;10.23;100.00;101945.03;1044568;28;20701;-85
2023/05/13 01:56:13;;;;;;;7.75;6.90;;;;;;;10.26;100.00;101944.66;1043694;28;20808;-85
2023/05/13 01:56:45;;;;;;;10.60;7.40;;;;;;;10.19;100.00;101939.22;1043549;28;20307;-84
2023/05/13 01:57:16;;;;;;;8.07;7.15;;;;;;;10.23;100.00;101944.19;1048033;28;20654;-83
2023/05/13 01:57:48;;;;;;;9.68;8.68;;;;;;;10.20;100.00;101940.03;1048237;28;20310;-85
2023/05/13 01:58:20;;;;;;;13.27;7.57;;;;;;;10.13;100.00;101942.59;1046708;28;20400;-83
2023/05/13 01:58:51;;;;;;;8.15;7.35;;;;;;;10.13;100.00;101939.94;1043800;28;20457;-85
2023/05/13 01:59:23;;;;;;;7.88;7.13;;;;;;;10.18;100.00;101942.06;1047823;28;20291;-85
2023/05/13 01:59:54;;;;;;;10.02;7.32;;;;;;;10.20;100.00;101940.91;1047636;28;20387;-86
2023/05/13 02:00:26;;;;;;;8.65;6.82;;;;;;;10.21;100.00;101947.03;1047891;28;20310;-85
2023/05/13 02:00:58;;;;;;;11.73;8.18;;;;;;;10.15;100.00;101937.94;1047602;28;20313;-85
2023/05/13 02:01:29;;;;;;;10.30;7.65;;;;;;;10.17;100.00;101943.91;1045414;28;20295;-85
2023/05/13 02:02:01;;;;;;;14.05;10.75;;;;;;;10.12;100.00;101945.44;1047466;28;20393;-85
2023/05/13 02:02:33;;;;;;;10.27;7.38;;;;;;;10.15;100.00;101943.25;1043796;28;20986;-85
2023/05/13 02:03:05;;;;;;;9.27;8.48;;;;;;;10.13;100.00;101939.94;1047829;28;20297;-85
2023/05/13 02:03:36;;;;;;;15.57;8.20;;;;;;;10.12;100.00;101948.94;1043358;28;20318;-85
2023/05/13 02:04:08;;;;;;;8.52;7.60;;;;;;;10.14;100.00;101938.94;1038473;28;20404;-85
2023/05/13 02:04:40;;;;;;;11.30;7.72;;;;;;;10.16;100.00;101938.75;1035561;28;20836;-85
2023/05/13 02:05:12;;;;;;;11.43;7.38;;;;;;;10.15;100.00;101934.44;1031635;28;20304;-85
2023/05/13 02:05:45;;;;;;;10.27;8.48;;;;;;;10.10;100.00;101934.16;1035447;28;20374;-85
2023/05/13 02:06:17;;;;;;;8.60;7.70;;;;;;;10.20;100.00;101940.91;1040800;28;20295;-85
2023/05/13 02:06:49;;;;;;;8.05;6.88;;;;;;;10.05;100.00;101937.38;1044234;28;20647;-85
2023/05/13 02:07:21;;;;;;;10.25;7.30;;;;;;;10.07;100.00;101935.34;1042334;28;20769;-85
2023/05/13 02:07:53;;;;;;;8.77;7.88;;;;;;;10.04;100.00;101935.72;1042993;28;20975;-86
2023/05/13 02:08:26;;;;;;;9.00;8.05;;;;;;;10.05;100.00;101937.38;1039299;28;20345;-86
2023/05/13 02:08:58;;;;;;;13.32;7.95;;;;;;;9.99;100.00;101935.47;1036864;28;20674;-86
2023/05/13 02:09:29;;;;;;;7.40;6.75;;;;;;;9.97;100.00;101939.34;1034209;28;20306;-85
2023/05/13 02:10:02;;;;;;;9.10;7.50;;;;;;;9.99;100.00;101942.63;1039625;28;20331;-85
2023/05/13 02:10:35;;;;;;;10.38;7.45;;;;;;;9.99;100.00;101937.31;1043748;28;20812;-86
2023/05/13 02:11:06;;;;;;;10.25;7.60;;;;;;;10.04;100.00;101940.22;1043351;28;20303;-85
2023/05/13 02:11:38;;;;;;;8.25;7.47;;;;;;;9.95;100.00;101934.19;1035553;28;20301;-85
2023/05/13 02:12:10;;;;;;;8.88;8.00;;;;;;;10.04;100.00;101935.72;1039808;28;20378;-85
2023/05/13 02:12:42;;;;;;;7.95;7.25;;;;;;;10.01;100.00;101935.28;1043661;28;20689;-85
2023/05/13 02:13:13;;;;;;;10.65;7.63;;;;;;;10.04;100.00;101940.22;1044449;28;20303;-85
2023/05/13 02:13:45;;;;;;;8.15;7.20;;;;;;;9.98;100.00;101935.66;1051598;28;20376;-85
2023/05/13 02:14:17;;;;;;;8.38;7.47;;;;;;;9.94;100.00;101935.22;1047502;28;20344;-86
2023/05/13 02:14:48;;;;;;;8.23;6.25;;;;;;;9.86;100.00;101935.28;1048172;28;20348;-85
2023/05/13 02:15:20;;;;;;;13.93;8.15;;;;;;;9.94;100.00;101934.38;1045314;28;20350;-85
2023/05/13 02:15:52;;;;;;;12.30;7.72;;;;;;;9.95;100.00;101939.53;1043820;28;20299;-85
2023/05/13 02:16:24;;;;;;;7.95;6.97;;;;;;;9.91;100.00;101935.59;1043088;28;20299;-85
2023/05/13 02:16:55;;;;;;;8.07;7.28;;;;;;;9.91;100.00;101938.25;1040185;28;20307;-85
2023/05/13 02:17:27;;;;;;;8.65;7.78;;;;;;;9.91;100.00;101935.59;1039546;28;20335;-84
2023/05/13 02:17:59;;;;;;;10.13;8.15;;;;;;;9.89;100.00;101942.94;1043259;28;20311;-85
2023/05/13 02:18:31;;;;;;;9.43;8.55;;;;;;;9.94;100.00;101940.53;1043451;28;20720;-85
2023/05/13 02:19:03;;;;;;;8.43;7.43;;;;;;;9.90;100.00;101936.59;1041128;28;20324;-85
2023/05/13 02:19:34;;;;;;;10.35;7.63;;;;;;;9.96;100.00;101938.50;1039589;28;20296;-85
2023/05/13 02:20:07;;;;;;;10.23;8.10;;;;;;;9.91;100.00;101935.59;1043620;28;20311;-84
2023/05/13 02:20:40;;;;;;;10.05;7.57;;;;;;;9.90;100.00;101934.75;1039355;28;20310;-85
2023/05/13 02:21:11;;;;;;;8.82;7.65;;;;;;;9.92;100.00;101942.56;1035967;28;20308;-85
2023/05/13 02:21:43;;;;;;;8.52;7.65;;;;;;;9.92;100.00;101945.22;1035548;28;20672;-85
2023/05/13 02:22:15;;;;;;;11.77;7.43;;;;;;;9.92;100.00;101945.22;1040395;28;20767;-85
2023/05/13 02:22:47;;;;;;;13.07;7.97;;;;;;;9.90;100.00;101941.91;1047652;28;20405;-85
2023/05/13 02:23:18;;;;;;;8.45;7.68;;;;;;;9.91;100.00;101935.59;1047886;28;20306;-84
2023/05/13 02:23:50;;;;;;;7.97;7.28;;;;;;;9.88;100.00;101941.28;1047417;28;20305;-85
2023/05/13 02:24:21;;;;;;;9.43;8.43;;;;;;;9.90;100.00;101944.56;1044041;28;20311;-85
2023/05/13 02:24:53;;;;;;;8.75;7.93;;;;;;;9.86;100.00;101938.81;1047847;28;20723;-85
2023/05/13 02:25:25;;;;;;;11.57;9.23;;;;;;;9.93;100.00;101946.03;1047711;28;20385;-86
2023/05/13 02:25:56;;;;;;;8.38;7.68;;;;;;;9.91;100.00;101947.06;1051744;28;20768;-85
2023/05/13 02:26:30;;;;;;;10.07;8.13;;;;;;;9.91;100.00;101946.22;1043255;28;20386;-84
2023/05/13 02:27:03;;;;;;;9.15;8.00;;;;;;;9.89;100.00;101953.56;1043636;28;20303;-85
2023/05/13 02:27:34;;;;;;;11.25;7.47;;;;;;;9.89;100.00;101937.59;1047520;28;20808;-85
2023/05/13 02:28:06;;;;;;;8.80;7.88;;;;;;;9.91;100.00;101938.25;1043110;28;20731;-85
2023/05/13 02:28:38;;;;;;;10.25;7.82;;;;;;;9.94;100.00;101935.22;1048336;28;20299;-85
2023/05/13 02:29:09;;;;;;;8.55;7.75;;;;;;;9.98;100.00;101941.81;1047096;28;20306;-85
2023/05/13 02:29:41;;;;;;;10.80;8.02;;;;;;;9.89;100.00;101942.94;1042566;28;20299;-85
2023/05/13 02:30:13;;;;;;;9.27;7.75;;;;;;;9.85;100.00;101941.63;1042891;28;20895;-85
2023/05/13 02:30:45;;;;;;;8.45;7.57;;;;;;;9.88;100.00;101935.94;1035014;28;20308;-85
2023/05/13 02:31:17;;;;;;;9.93;8.80;;;;;;;9.77;100.00;101939.06;1043423;28;20307;-85
2023/05/13 02:31:49;;;;;;;9.43;8.52;;;;;;;9.78;100.00;101938.06;1047302;28;20303;-85
2023/05/13 02:32:21;;;;;;;8.85;7.85;;;;;;;9.80;100.00;101946.66;1048176;28;20299;-85
2023/05/13 02:32:55;;;;;;;8.73;7.85;;;;;;;9.74;100.00;101942.91;1046564;28;20298;-85
2023/05/13 02:33:26;;;;;;;8.40;7.28;;;;;;;9.75;100.00;101938.41;1043360;28;20363;-85
2023/05/13 02:33:58;;;;;;;8.48;7.47;;;;;;;9.74;100.00;101939.44;1043888;28;20307;-85